La Coruña, Spain

5:59 PM CET en Diciembre 11, 2017 (GMT +0100)
Rúa Comandante Fontanes | | Change Station

Alt 22 ft 43.37 °N, 8.41 °W | Updated 51 minutes ago

Parcialmente nublado
Parcialmente nublado
54.0 ° F
Sensación térmica 54.0 ° F
N
4.3
Viento Variable Viento desde NE
Gusts 9.3 mph

Hoy
Alta -- | Baja -- ° F
--% Posibilidad de precipitaciones
Ayer
Alta -- | Baja -- ° F
Precip. -- pul
Presión 29.68 pul
Visibilidad 6.2 Millas
Nubes Nubes dispersas 4000 ft
Punto de rocío 43 ° F
Humedad 65%
Precipitaciones 3.06 pul
Espesor de la nieve No disponible.
8:56 AM 5:57 PM
Cuarto menguante, 36% visible
METAR LECO 111630Z VRB01KT 9999 SCT040 08/03 Q1005 TEMPO 3000 SHRA SCT020TCU
Presión 29.68 pul
Visibilidad 6.2 Millas
Nubes Nubes dispersas 4000 ft
Punto de rocío 43 ° F
Humedad 65%
Precipitaciones 3.06 pul
Espesor de la nieve No disponible.
8:56 AM 5:57 PM
Cuarto menguante, 36% visible
METAR LECO 111630Z VRB01KT 9999 SCT040 08/03 Q1005 TEMPO 3000 SHRA SCT020TCU

Get Severe Weather Alerts

Thanks for signing up!

Be on the lookout for a verification email in your inbox.

You'll start receiving the daily forecast at 6 AM.

×

10-Day Weather Forecast

×

Almanac

Astronomía

Dec. 11, 2017 Salida Puesta
Hora real
Crepúsculo civil
Crepúsculo náutico
Crepúsculo astronómico
Luna
Horas de luz
Horas de luz
Tomorrow will be .
, % of the Moon is Illuminated

Extremos de hoy

Máximos del país Bajas del país

Community

WunderPhotos

Category 6

Welcome to Category 6. This is the collective home for Weather Underground's featured writeups by Dr. Jeff Masters (right), Bob Henson (left), Chris Burt, and other regular contributors.

Nearby

Calidad del aire

  Calidad del aire Índice AQ Contaminante
Not available.

Grosos de nieve

Estación Profundido Altura

Actividad de terremotos

Ciudad Distance Mag. Tiempo y dato
Magnitud mínima muestra es 2,5.

Temperaturas de aguas costeras

Lugar Temperatura

Stations

Estaciones meteorológicas cercanas

Ubicación de la estación Temp. Vientos helados Punto de rocío Humedad Viento Precip. Alt Actualizado Tipo